Time;durP1;ratioP1;P1;durP2;ratioP2;P2;SDS_P1;SDS_P2;PMS_P1;PMS_P2;Temp;Humidity;BMP_temperature;BMP_pressure;BME280_temperature;BME280_humidity;BME280_pressure;Samples;Min_cycle;Max_cycle;Signal;HPM_P1;HPM_P2
2021/07/12 00:00:53;;;;;;;1.33;1.23;;;;;;;22.12;100.00;97376.84;5031409;28;20284;-66
2021/07/12 00:03:19;;;;;;;1.50;1.40;;;;;;;22.37;100.00;97430.34;5031463;28;20205;-65
2021/07/12 00:05:46;;;;;;;1.43;1.33;;;;;;;22.37;100.00;97419.22;5029400;28;20562;-66
2021/07/12 00:08:12;;;;;;;1.50;1.40;;;;;;;22.26;100.00;97392.53;5031333;28;20257;-66
2021/07/12 00:10:39;;;;;;;1.50;1.40;;;;;;;22.37;100.00;97412.44;5030730;28;20197;-65
2021/07/12 00:13:06;;;;;;;2.80;1.30;;;;;;;22.32;100.00;97403.75;5031418;28;20229;-64
2021/07/12 00:15:32;;;;;;;1.60;1.50;;;;;;;22.39;100.00;97409.91;5029158;28;20245;-64
2021/07/12 00:17:59;;;;;;;1.50;1.40;;;;;;;22.39;100.00;97402.22;5026281;28;20249;-65
2021/07/12 00:20:26;;;;;;;1.27;1.23;;;;;;;22.26;100.00;97379.72;5031108;28;20233;-66
2021/07/12 00:22:53;;;;;;;1.47;1.37;;;;;;;21.92;100.00;97329.41;5018929;28;20251;-65
2021/07/12 00:25:20;;;;;;;1.60;1.50;;;;;;;22.39;100.00;97402.22;5031591;28;20599;-66
2021/07/12 00:27:47;;;;;;;1.60;1.50;;;;;;;22.40;100.00;97403.94;5030243;28;20732;-66
2021/07/12 00:30:15;;;;;;;1.43;1.33;;;;;;;22.06;100.00;97337.41;5029270;28;20336;-65
2021/07/12 00:32:42;;;;;;;1.43;1.33;;;;;;;22.30;100.00;97384.09;5030879;28;20209;-66
2021/07/12 00:35:10;;;;;;;1.97;1.60;;;;;;;22.37;100.00;97391.94;5030839;28;20307;-63
2021/07/12 00:37:37;;;;;;;1.50;1.40;;;;;;;21.52;100.00;97250.78;5027388;28;20245;-66
2021/07/12 00:40:07;;;;;;;1.50;1.40;;;;;;;21.99;100.00;97328.72;5029823;28;20296;-66
2021/07/12 00:42:34;;;;;;;1.27;1.20;;;;;;;22.36;100.00;97390.22;5030231;28;20221;-64
2021/07/12 00:45:01;;;;;;;1.40;1.30;;;;;;;22.36;100.00;97392.78;5012665;28;20228;-66
2021/07/12 00:47:28;;;;;;;1.50;1.40;;;;;;;21.91;100.00;97308.91;5029335;28;20309;-66
2021/07/12 00:49:54;;;;;;;1.53;1.43;;;;;;;21.91;100.00;97309.78;5029649;28;20656;-66
2021/07/12 00:52:21;;;;;;;1.40;1.30;;;;;;;22.10;100.00;97340.09;5027378;28;20443;-63
2021/07/12 00:54:47;;;;;;;1.40;1.30;;;;;;;21.19;100.00;97178.38;5028846;28;20328;-66
2021/07/12 00:57:14;;;;;;;1.50;1.40;;;;;;;22.20;100.00;97348.88;5039374;28;20260;-66
2021/07/12 00:59:41;;;;;;;1.40;1.30;;;;;;;20.92;100.00;97130.78;5027531;28;20232;-63
2021/07/12 01:02:07;;;;;;;1.60;1.50;;;;;;;21.22;100.00;97173.31;5027785;28;20281;-66
2021/07/12 01:04:34;;;;;;;2.73;1.33;;;;;;;22.38;100.00;97367.22;5027958;28;20572;-66
2021/07/12 01:09:28;;;;;;;1.50;1.40;;;;;;;22.21;100.00;97343.78;5028724;28;20223;-66
2021/07/12 01:12:14;;;;;;;3.63;1.60;;;;;;;22.38;100.00;97375.75;5005929;28;20742;-66
2021/07/12 01:14:43;;;;;;;1.40;1.30;;;;;;;22.37;100.00;97365.47;5026618;28;20265;-68
2021/07/12 01:17:43;;;;;;;2.07;1.40;;;;;;;22.37;100.00;97365.47;5034793;28;20240;-66
2021/07/12 01:20:36;;;;;;;1.20;1.20;;;;;;;22.36;100.00;97364.63;5018113;28;20198;-66
2021/07/12 01:23:26;;;;;;;1.43;1.30;;;;;;;22.35;100.00;97354.34;5021368;28;20225;-66
2021/07/12 01:26:36;;;;;;;2.13;1.30;;;;;;;21.60;100.00;97221.16;5025440;28;20705;-66
2021/07/12 01:29:40;;;;;;;1.50;1.40;;;;;;;22.35;100.00;97351.78;4975421;28;20218;-68
2021/07/12 01:32:07;;;;;;;1.40;1.30;;;;;;;22.35;100.00;97347.50;5033058;28;20284;-66
2021/07/12 01:35:03;;;;;;;1.63;1.53;;;;;;;22.35;100.00;97346.66;5036315;28;20931;-66
2021/07/12 01:37:43;;;;;;;1.60;1.50;;;;;;;22.35;100.00;97339.81;5027696;28;20249;-66
2021/07/12 01:40:15;;;;;;;1.40;1.30;;;;;;;22.35;100.00;97338.97;5036226;28;20232;-68
2021/07/12 01:42:41;;;;;;;1.40;1.30;;;;;;;22.35;100.00;97337.25;5005182;28;20288;-66
2021/07/12 01:45:10;;;;;;;1.47;1.37;;;;;;;22.24;100.00;97314.81;5036281;28;20563;-64
2021/07/12 01:47:54;;;;;;;1.50;1.40;;;;;;;22.37;100.00;97337.31;5005583;28;20241;-66
2021/07/12 01:51:00;;;;;;;1.20;1.20;;;;;;;21.69;100.00;97221.38;5037144;28;20237;-66
2021/07/12 01:54:01;;;;;;;2.07;1.70;;;;;;;22.35;100.00;97321.91;5018809;28;20202;-68
2021/07/12 01:56:33;;;;;;;1.50;1.40;;;;;;;22.36;100.00;97327.91;5008860;28;21842;-66
2021/07/12 01:59:26;;;;;;;1.57;1.47;;;;;;;22.34;100.00;97319.31;5052666;28;20304;-68
2021/07/12 02:01:53;;;;;;;1.50;1.40;;;;;;;22.34;100.00;97311.63;5026785;28;20221;-66
2021/07/12 02:04:20;;;;;;;1.23;1.13;;;;;;;21.85;100.00;97232.88;5027759;28;20204;-63
2021/07/12 02:06:47;;;;;;;1.47;1.37;;;;;;;22.33;100.00;97309.91;5023290;28;20620;-66
2021/07/12 02:09:13;;;;;;;1.40;1.30;;;;;;;22.33;100.00;97299.66;5025563;28;20244;-68
2021/07/12 02:11:44;;;;;;;1.40;1.30;;;;;;;22.33;100.00;97300.53;5022396;28;20266;-67
2021/07/12 02:14:12;;;;;;;3.03;1.50;;;;;;;22.33;100.00;97300.53;5021671;28;20229;-66
2021/07/12 02:16:38;;;;;;;1.60;1.50;;;;;;;22.33;100.00;97287.75;5004683;28;20235;-68
2021/07/12 02:19:06;;;;;;;1.40;1.30;;;;;;;22.20;100.00;97266.94;5005257;28;20311;-66
2021/07/12 02:21:33;;;;;;;1.40;1.30;;;;;;;22.22;100.00;97268.69;5014193;28;20280;-68
2021/07/12 02:24:01;;;;;;;1.50;1.40;;;;;;;21.88;100.00;97209.91;5017869;28;20236;-66
2021/07/12 02:26:28;;;;;;;1.57;1.47;;;;;;;22.34;100.00;97288.59;5003888;28;20201;-66
2021/07/12 02:28:55;;;;;;;1.33;1.23;;;;;;;22.35;100.00;97283.50;5044226;28;20248;-67
2021/07/12 02:31:21;;;;;;;3.07;1.30;;;;;;;22.35;100.00;97293.75;5022700;28;20237;-66
2021/07/12 02:33:49;;;;;;;1.50;1.40;;;;;;;22.36;100.00;97292.06;5027285;28;20193;-66
2021/07/12 02:36:15;;;;;;;1.67;1.57;;;;;;;21.14;100.00;97082.81;5015174;28;20250;-68
2021/07/12 02:38:42;;;;;;;1.50;1.40;;;;;;;22.18;100.00;97260.91;4996499;28;20707;-67
2021/07/12 02:41:09;;;;;;;1.63;1.40;;;;;;;22.35;100.00;97292.91;5005494;28;20236;-66
2021/07/12 02:43:35;;;;;;;1.50;1.40;;;;;;;22.24;100.00;97282.41;5040767;28;20228;-66
2021/07/12 02:46:03;;;;;;;1.50;1.40;;;;;;;21.57;100.00;97162.28;5007930;28;20237;-67
2021/07/12 02:48:30;;;;;;;1.30;1.20;;;;;;;22.33;100.00;97287.75;5055315;28;20267;-63
2021/07/12 02:50:56;;;;;;;1.77;1.63;;;;;;;22.26;100.00;97277.34;5029651;28;20251;-67
2021/07/12 02:53:27;;;;;;;2.20;1.30;;;;;;;22.18;100.00;97279.72;5023689;28;20201;-66
2021/07/12 02:55:54;;;;;;;3.43;1.63;;;;;;;22.27;100.00;97286.72;5003673;28;20312;-66
2021/07/12 02:58:20;;;;;;;1.70;1.43;;;;;;;22.34;100.00;97296.25;5021937;28;20257;-66
2021/07/12 03:00:47;;;;;;;1.50;1.40;;;;;;;22.34;100.00;97291.13;5034166;28;20277;-66
2021/07/12 03:03:13;;;;;;;2.30;1.50;;;;;;;21.18;100.00;97096.56;5042604;28;20256;-66
2021/07/12 03:05:40;;;;;;;1.57;1.43;;;;;;;22.35;100.00;97293.75;5042384;28;20229;-66
2021/07/12 03:08:17;;;;;;;1.40;1.30;;;;;;;22.35;100.00;97298.00;5037495;28;20312;-64
2021/07/12 03:10:52;;;;;;;1.50;1.40;;;;;;;22.35;100.00;97303.13;5038537;28;20196;-67
2021/07/12 03:13:20;;;;;;;1.40;1.30;;;;;;;22.36;100.00;97294.63;5042518;28;20247;-66
2021/07/12 03:15:47;;;;;;;1.70;1.60;;;;;;;22.35;100.00;97303.97;5008373;28;20224;-66
2021/07/12 03:18:22;;;;;;;1.50;1.40;;;;;;;22.35;100.00;97301.41;5042057;28;20362;-66
2021/07/12 03:20:50;;;;;;;1.70;1.60;;;;;;;22.35;100.00;97295.47;5043500;28;20228;-67
2021/07/12 03:23:17;;;;;;;1.60;1.50;;;;;;;22.11;100.00;97259.06;5024360;28;20204;-67
2021/07/12 03:25:50;;;;;;;1.70;1.60;;;;;;;22.28;100.00;97281.63;5005810;28;20645;-66
2021/07/12 03:28:17;;;;;;;1.40;1.30;;;;;;;21.37;100.00;97129.38;5023323;28;20308;-67
2021/07/12 03:30:43;;;;;;;1.70;1.60;;;;;;;22.34;100.00;97296.25;5030126;28;20243;-65
2021/07/12 03:33:10;;;;;;;2.73;1.47;;;;;;;22.33;100.00;97299.66;5039502;28;20613;-66
2021/07/12 03:35:41;;;;;;;1.63;1.53;;;;;;;22.33;100.00;97295.41;5022733;28;20287;-66
2021/07/12 03:38:07;;;;;;;2.50;1.60;;;;;;;22.34;100.00;97293.69;5013035;28;20272;-64
2021/07/12 03:40:34;;;;;;;2.47;1.60;;;;;;;22.22;100.00;97278.94;5043506;28;20239;-66
2021/07/12 03:43:01;;;;;;;1.50;1.40;;;;;;;22.34;100.00;97303.94;5020340;28;20284;-66
2021/07/12 03:45:28;;;;;;;2.00;1.63;;;;;;;22.34;100.00;97294.59;5010879;28;20198;-64
2021/07/12 03:47:54;;;;;;;1.40;1.30;;;;;;;22.34;100.00;97296.25;5035481;28;20616;-66
2021/07/12 03:50:21;;;;;;;1.70;1.57;;;;;;;22.35;100.00;97292.91;5036965;28;20197;-66
2021/07/12 03:52:49;;;;;;;1.63;1.50;;;;;;;22.34;100.00;97302.25;5005206;28;20729;-64
2021/07/12 03:55:18;;;;;;;1.80;1.70;;;;;;;22.17;100.00;97265.16;5037058;28;20257;-66
2021/07/12 03:57:45;;;;;;;1.60;1.50;;;;;;;22.35;100.00;97286.06;5038855;28;20256;-66
2021/07/12 04:00:19;;;;;;;1.60;1.50;;;;;;;22.29;100.00;97278.25;5021203;28;20283;-67
2021/07/12 04:02:46;;;;;;;1.60;1.50;;;;;;;22.34;100.00;97281.78;5026748;28;20283;-67
2021/07/12 04:05:13;;;;;;;1.60;1.50;;;;;;;21.93;100.00;97218.53;5035070;28;20226;-68
2021/07/12 04:07:40;;;;;;;2.00;1.70;;;;;;;22.33;100.00;97292.84;5035213;28;20260;-66
2021/07/12 04:10:10;;;;;;;1.70;1.60;;;;;;;22.33;100.00;97284.31;5035833;28;20280;-64
2021/07/12 04:12:37;;;;;;;1.40;1.30;;;;;;;22.31;100.00;97286.81;5035335;28;20251;-66
2021/07/12 04:15:05;;;;;;;1.70;1.60;;;;;;;22.32;100.00;97283.44;5039011;28;20229;-66
2021/07/12 04:17:31;;;;;;;1.70;1.60;;;;;;;22.33;100.00;97286.88;5042106;28;20226;-68
2021/07/12 04:19:58;;;;;;;1.50;1.40;;;;;;;22.29;100.00;97277.41;5035994;28;20701;-66
2021/07/12 04:22:25;;;;;;;1.60;1.50;;;;;;;22.32;100.00;97277.47;5040002;28;20630;-66
2021/07/12 04:24:52;;;;;;;1.80;1.70;;;;;;;22.33;100.00;97286.88;5041884;28;20335;-68
2021/07/12 04:27:18;;;;;;;1.90;1.80;;;;;;;22.34;100.00;97289.47;5018030;28;20273;-68
2021/07/12 04:29:45;;;;;;;1.60;1.50;;;;;;;22.31;100.00;97284.28;5037705;28;20285;-66
2021/07/12 04:32:12;;;;;;;1.80;1.70;;;;;;;21.29;100.00;97100.22;5037782;28;20670;-65
2021/07/12 04:34:38;;;;;;;1.80;1.70;;;;;;;22.21;100.00;97263.56;5038010;28;20247;-65
2021/07/12 04:37:05;;;;;;;1.90;1.80;;;;;;;21.86;100.00;97201.34;5024786;28;20309;-68
2021/07/12 04:39:32;;;;;;;1.90;1.80;;;;;;;22.35;100.00;97287.78;5019616;28;20236;-68
2021/07/12 04:42:02;;;;;;;1.83;1.73;;;;;;;22.35;100.00;97280.09;5033118;28;20229;-66
2021/07/12 04:44:28;;;;;;;1.70;1.60;;;;;;;22.32;100.00;97267.22;5020360;28;20202;-65
2021/07/12 04:46:57;;;;;;;1.90;1.80;;;;;;;22.36;100.00;97277.56;5019346;28;20226;-68
2021/07/12 04:49:24;;;;;;;2.00;1.80;;;;;;;22.36;100.00;97274.13;5035910;28;20288;-67
2021/07/12 04:51:50;;;;;;;1.83;1.73;;;;;;;22.34;100.00;97278.34;5043654;28;20682;-65
2021/07/12 04:54:17;;;;;;;1.70;1.60;;;;;;;22.35;100.00;97277.53;5039776;28;20252;-65
2021/07/12 04:56:44;;;;;;;1.80;1.70;;;;;;;22.36;100.00;97279.25;5042140;28;20237;-67
2021/07/12 04:59:11;;;;;;;1.87;1.77;;;;;;;22.35;100.00;97274.97;5039220;28;20709;-70
2021/07/12 05:01:38;;;;;;;1.90;1.80;;;;;;;22.35;100.00;97283.50;5038438;28;20197;-66
2021/07/12 05:04:05;;;;;;;1.80;1.70;;;;;;;22.36;100.00;97286.94;5031048;28;20237;-66
2021/07/12 05:06:32;;;;;;;1.80;1.70;;;;;;;22.37;100.00;97280.97;5013225;28;20237;-66
2021/07/12 05:08:58;;;;;;;1.80;1.70;;;;;;;22.37;100.00;97278.41;5043744;28;20248;-67
2021/07/12 05:11:25;;;;;;;1.90;1.80;;;;;;;22.38;100.00;97277.59;5041394;28;20288;-66
2021/07/12 05:13:53;;;;;;;2.13;2.03;;;;;;;22.39;100.00;97287.00;5045110;28;20196;-67
2021/07/12 05:16:20;;;;;;;2.47;2.27;;;;;;;22.39;100.00;97281.88;5038358;28;20226;-65
2021/07/12 05:18:47;;;;;;;2.10;2.00;;;;;;;22.39;100.00;97275.06;5037847;28;20546;-66
2021/07/12 05:21:14;;;;;;;2.10;1.90;;;;;;;22.40;100.00;97281.03;5024875;28;20305;-66
2021/07/12 05:23:41;;;;;;;2.47;1.93;;;;;;;22.40;100.00;97275.91;5033618;28;20236;-66
2021/07/12 05:26:07;;;;;;;2.17;2.07;;;;;;;22.41;100.00;97275.09;5015955;28;20644;-64
2021/07/12 05:28:36;;;;;;;2.43;2.00;;;;;;;22.40;100.00;97279.34;5028805;28;20700;-67
2021/07/12 05:31:02;;;;;;;3.17;1.90;;;;;;;22.40;100.00;97274.22;5035080;28;20204;-68
2021/07/12 05:33:29;;;;;;;2.57;1.60;;;;;;;22.39;100.00;97269.94;5042218;28;20663;-66
2021/07/12 05:35:56;;;;;;;1.77;1.67;;;;;;;22.40;100.00;97266.56;5037753;28;20255;-66
2021/07/12 05:38:22;;;;;;;1.80;1.70;;;;;;;22.38;100.00;97263.06;5037733;28;20749;-66
2021/07/12 05:40:49;;;;;;;1.90;1.70;;;;;;;22.35;100.00;97262.16;5039370;28;20778;-66
2021/07/12 05:43:15;;;;;;;1.90;1.80;;;;;;;22.40;100.00;97264.00;5024895;28;20232;-67
2021/07/12 05:45:43;;;;;;;1.73;1.63;;;;;;;22.40;100.00;97266.56;5036683;28;20198;-66
2021/07/12 05:48:10;;;;;;;1.87;1.70;;;;;;;22.40;100.00;97264.00;5039012;28;20300;-67
2021/07/12 05:50:37;;;;;;;2.00;1.90;;;;;;;22.40;100.00;97258.00;5041352;28;20284;-66
2021/07/12 05:53:04;;;;;;;1.90;1.80;;;;;;;22.39;100.00;97257.16;5035815;28;20663;-65
2021/07/12 05:55:31;;;;;;;1.90;1.80;;;;;;;22.40;100.00;97261.44;5037006;28;21100;-67
2021/07/12 05:57:57;;;;;;;1.87;1.77;;;;;;;22.40;100.00;97261.44;5018427;28;20257;-67
2021/07/12 06:00:25;;;;;;;1.93;1.83;;;;;;;22.40;100.00;97261.44;5033116;28;20244;-66
2021/07/12 06:02:51;;;;;;;2.40;1.70;;;;;;;22.40;100.00;97265.69;5038830;28;20229;-66
2021/07/12 06:05:18;;;;;;;2.13;1.87;;;;;;;22.40;100.00;97260.56;5031365;28;20240;-64
2021/07/12 06:07:44;;;;;;;5.13;2.00;;;;;;;22.39;100.00;97267.38;5040952;28;20290;-66
2021/07/12 06:10:11;;;;;;;1.80;1.70;;;;;;;22.34;100.00;97261.28;5034120;28;20202;-67
2021/07/12 06:12:38;;;;;;;2.00;1.90;;;;;;;22.40;100.00;97270.78;5019541;28;20238;-67
2021/07/12 06:15:05;;;;;;;3.67;1.73;;;;;;;22.39;100.00;97276.75;5030920;28;20281;-67
2021/07/12 06:17:32;;;;;;;4.30;3.50;;;;;;;22.38;100.00;97278.44;5034190;28;20252;-66
2021/07/12 06:19:59;;;;;;;7.30;6.07;;;;;;;22.37;100.00;97278.41;5016962;28;20205;-66
2021/07/12 06:22:26;;;;;;;6.80;5.33;;;;;;;22.36;100.00;97280.13;5035806;28;20208;-66
2021/07/12 06:24:53;;;;;;;6.20;5.43;;;;;;;22.36;100.00;97281.81;5011365;28;20241;-66
2021/07/12 06:27:19;;;;;;;5.83;5.23;;;;;;;22.36;100.00;97266.44;5044008;28;20245;-64
2021/07/12 06:29:46;;;;;;;4.43;4.03;;;;;;;22.35;100.00;97265.56;5029769;28;20287;-66
2021/07/12 06:32:12;;;;;;;4.17;3.77;;;;;;;22.35;100.00;97259.63;5034871;28;20682;-66
2021/07/12 06:34:39;;;;;;;3.73;3.43;;;;;;;20.27;100.00;96913.81;5040248;28;20292;-66
2021/07/12 06:37:05;;;;;;;4.10;3.70;;;;;;;22.35;100.00;97264.72;5031661;28;20686;-67
2021/07/12 06:39:32;;;;;;;5.23;4.13;;;;;;;22.36;100.00;97257.09;5037201;28;20612;-65
2021/07/12 06:41:59;;;;;;;4.00;3.57;;;;;;;22.36;100.00;97253.66;5034319;28;20629;-67
2021/07/12 06:44:25;;;;;;;4.13;3.73;;;;;;;22.35;100.00;97247.66;5042812;28;20738;-66
2021/07/12 06:46:54;;;;;;;3.70;3.40;;;;;;;22.35;100.00;97255.34;5034538;28;20207;-66
2021/07/12 06:49:21;;;;;;;4.13;3.83;;;;;;;22.35;100.00;97245.09;5034337;28;20198;-66
2021/07/12 06:51:49;;;;;;;3.87;3.57;;;;;;;22.35;100.00;97242.53;5030408;28;20197;-64
2021/07/12 06:54:16;;;;;;;5.20;3.73;;;;;;;22.36;100.00;97239.16;5024276;28;20239;-67
2021/07/12 06:56:43;;;;;;;4.60;3.90;;;;;;;22.31;100.00;97229.63;5017853;28;20760;-67
2021/07/12 06:59:10;;;;;;;5.83;3.73;;;;;;;22.36;100.00;97235.72;5052615;28;20266;-67
2021/07/12 07:01:36;;;;;;;4.37;3.93;;;;;;;22.35;100.00;97237.41;5037572;28;20235;-66
2021/07/12 07:04:03;;;;;;;4.37;3.97;;;;;;;22.35;100.00;97231.44;5039730;28;20287;-69
2021/07/12 07:06:30;;;;;;;5.17;3.90;;;;;;;22.34;100.00;97239.94;5037839;28;20225;-66
2021/07/12 07:08:56;;;;;;;5.43;4.07;;;;;;;22.27;100.00;97228.72;5051567;22;20710;-61
2021/07/12 07:11:23;;;;;;;4.33;3.93;;;;;;;22.28;100.00;97238.13;5007317;28;20733;-60
2021/07/12 07:13:50;;;;;;;4.17;3.73;;;;;;;22.33;100.00;97243.34;5016437;28;20217;-59
2021/07/12 07:16:17;;;;;;;4.40;4.00;;;;;;;22.34;100.00;97245.06;5034673;28;20221;-60
2021/07/12 07:18:44;;;;;;;4.87;3.67;;;;;;;22.32;100.00;97241.63;5010538;28;20779;-60
2021/07/12 07:21:10;;;;;;;3.60;3.30;;;;;;;22.28;100.00;97240.69;4997916;28;20607;-61
2021/07/12 07:23:37;;;;;;;4.77;3.57;;;;;;;22.33;100.00;97248.47;5017027;28;20289;-60
2021/07/12 07:26:05;;;;;;;4.47;3.87;;;;;;;22.16;100.00;97214.81;5025954;28;20225;-61
2021/07/12 07:28:32;;;;;;;5.47;3.80;;;;;;;22.35;100.00;97244.25;5005661;28;20256;-59
2021/07/12 07:30:59;;;;;;;4.60;4.20;;;;;;;22.30;100.00;97233.03;4996812;28;20681;-59
2021/07/12 07:33:26;;;;;;;6.30;3.83;;;;;;;22.34;100.00;97227.13;4985977;28;20198;-60
2021/07/12 07:35:53;;;;;;;4.20;3.80;;;;;;;22.34;100.00;97219.47;5015298;28;20268;-62
2021/07/12 07:38:19;;;;;;;4.27;3.87;;;;;;;22.35;100.00;97224.59;5012731;28;20345;-59
2021/07/12 07:40:46;;;;;;;4.20;3.83;;;;;;;22.35;100.00;97218.66;5016706;28;20194;-60
2021/07/12 07:43:13;;;;;;;4.27;3.87;;;;;;;22.34;100.00;97210.09;5019405;28;20294;-59
2021/07/12 07:45:39;;;;;;;4.37;3.93;;;;;;;22.34;100.00;97209.22;5021771;28;20225;-59
2021/07/12 07:48:06;;;;;;;4.90;3.63;;;;;;;22.33;100.00;97216.06;5017587;28;20305;-60
2021/07/12 07:50:36;;;;;;;4.53;3.93;;;;;;;22.34;100.00;97209.22;5020822;28;20197;-59
2021/07/12 07:53:04;;;;;;;4.40;3.60;;;;;;;22.33;100.00;97207.50;5018753;28;20694;-61
2021/07/12 07:55:30;;;;;;;4.00;3.67;;;;;;;22.32;100.00;97201.50;5005001;28;20213;-60
2021/07/12 07:57:59;;;;;;;3.90;3.60;;;;;;;22.33;100.00;97202.38;5018168;28;20309;-60
2021/07/12 08:00:26;;;;;;;4.13;3.73;;;;;;;22.33;100.00;97204.94;5020516;28;20340;-60
2021/07/12 08:02:53;;;;;;;3.97;3.57;;;;;;;22.28;100.00;97191.16;5021682;28;20208;-60
2021/07/12 08:05:19;;;;;;;3.90;3.60;;;;;;;22.33;100.00;97202.38;4996780;28;20638;-60
2021/07/12 08:07:46;;;;;;;3.77;3.47;;;;;;;22.31;100.00;97192.09;5019442;28;20222;-61
2021/07/12 08:10:14;;;;;;;4.07;3.67;;;;;;;22.33;100.00;97195.56;4999952;28;20214;-59
2021/07/12 08:12:41;;;;;;;3.93;3.63;;;;;;;22.33;100.00;97197.25;5020031;28;20233;-59
2021/07/12 08:15:09;;;;;;;4.40;4.00;;;;;;;22.35;100.00;97198.16;4996618;28;20233;-59
2021/07/12 08:17:37;;;;;;;3.90;3.50;;;;;;;22.32;100.00;97177.63;5023077;28;20245;-61
2021/07/12 08:20:04;;;;;;;4.00;3.70;;;;;;;22.36;100.00;97176.84;4986915;28;20218;-59
2021/07/12 08:22:46;;;;;;;4.00;3.70;;;;;;;22.35;100.00;97175.97;5002258;28;20293;-60
2021/07/12 08:25:13;;;;;;;4.30;3.90;;;;;;;22.36;100.00;97169.16;4999141;28;20198;-59
2021/07/12 08:27:40;;;;;;;4.10;3.70;;;;;;;22.36;100.00;97171.72;5019291;28;20197;-59
2021/07/12 08:30:07;;;;;;;3.93;3.63;;;;;;;22.35;100.00;97170.84;5022679;28;20369;-60
2021/07/12 08:32:34;;;;;;;4.73;3.80;;;;;;;22.34;100.00;97169.13;4987242;28;20839;-60
2021/07/12 08:35:03;;;;;;;3.60;3.30;;;;;;;22.34;100.00;97174.25;5017951;28;20687;-60
2021/07/12 08:37:30;;;;;;;4.10;3.70;;;;;;;22.34;100.00;97160.56;5011177;28;20280;-59
2021/07/12 08:39:56;;;;;;;3.63;3.33;;;;;;;22.35;100.00;97157.19;4998618;28;20305;-62
2021/07/12 08:42:23;;;;;;;3.80;3.50;;;;;;;22.33;100.00;97148.63;5021173;28;20206;-61
2021/07/12 08:44:49;;;;;;;4.60;3.70;;;;;;;22.32;100.00;97152.84;4999112;28;20241;-60
2021/07/12 08:47:16;;;;;;;4.20;3.83;;;;;;;22.35;100.00;97146.97;5022593;28;20251;-58
2021/07/12 08:49:42;;;;;;;3.60;3.30;;;;;;;22.32;100.00;97147.75;5015932;28;20256;-60
2021/07/12 08:52:09;;;;;;;4.40;3.80;;;;;;;22.35;100.00;97146.97;4996545;28;20236;-59
2021/07/12 08:54:37;;;;;;;4.00;3.60;;;;;;;22.36;100.00;97135.88;5003397;28;20294;-61
2021/07/12 08:57:04;;;;;;;4.03;3.50;;;;;;;22.31;100.00;97130.66;5001505;28;20264;-62
2021/07/12 08:59:37;;;;;;;3.50;3.20;;;;;;;22.37;100.00;97137.59;4968017;28;20723;-60
2021/07/12 09:02:11;;;;;;;4.10;3.70;;;;;;;22.36;100.00;97139.31;5002636;28;20226;-61
2021/07/12 09:04:42;;;;;;;4.23;3.83;;;;;;;22.38;100.00;97137.63;4987135;28;20197;-59
2021/07/12 09:07:11;;;;;;;3.70;3.40;;;;;;;22.38;100.00;97129.94;4986402;28;20199;-60
2021/07/12 09:09:38;;;;;;;4.60;3.60;;;;;;;22.39;100.00;97124.00;5004502;28;20312;-60
2021/07/12 09:12:23;;;;;;;4.23;3.83;;;;;;;22.40;100.00;97117.16;4998295;28;20290;-60
2021/07/12 09:15:16;;;;;;;3.80;3.50;;;;;;;22.40;100.00;97120.59;4998297;28;20607;-60
2021/07/12 09:17:44;;;;;;;4.00;3.70;;;;;;;22.40;100.00;97122.28;4999747;28;20864;-60
2021/07/12 09:20:21;;;;;;;3.73;3.43;;;;;;;22.41;100.00;97118.91;5001363;28;20201;-62
2021/07/12 09:22:48;;;;;;;3.70;3.40;;;;;;;22.41;100.00;97114.63;4993233;28;20261;-59
2021/07/12 09:25:14;;;;;;;5.40;3.70;;;;;;;22.42;100.00;97115.50;5005810;28;20233;-59
2021/07/12 09:27:41;;;;;;;3.53;3.23;;;;;;;22.42;100.00;97097.59;5003759;28;20723;-59
2021/07/12 09:30:13;;;;;;;3.87;3.57;;;;;;;22.41;100.00;97091.59;5002801;28;20198;-60
2021/07/12 09:32:41;;;;;;;4.03;3.70;;;;;;;22.41;100.00;97085.63;5003316;28;20285;-60
2021/07/12 09:35:10;;;;;;;4.23;3.80;;;;;;;22.43;100.00;97092.50;4984071;28;20244;-60
2021/07/12 09:37:41;;;;;;;3.43;3.13;;;;;;;22.42;100.00;97090.78;4999109;28;20249;-60
2021/07/12 09:40:17;;;;;;;3.90;3.60;;;;;;;22.42;100.00;97085.66;4998668;28;20222;-60
2021/07/12 09:42:46;;;;;;;4.53;3.30;;;;;;;22.44;100.00;97085.69;5001562;28;20236;-61
2021/07/12 09:45:14;;;;;;;4.20;3.40;;;;;;;22.42;100.00;97085.66;5007076;28;20292;-60
2021/07/12 09:47:45;;;;;;;4.10;3.70;;;;;;;22.43;100.00;97086.50;5007360;28;20207;-61
2021/07/12 09:50:19;;;;;;;3.80;3.50;;;;;;;22.43;100.00;97081.38;4984880;28;20289;-59
2021/07/12 09:52:50;;;;;;;4.10;3.70;;;;;;;22.42;100.00;97084.78;4983943;28;20641;-60
2021/07/12 09:55:22;;;;;;;3.80;3.50;;;;;;;22.42;100.00;97083.09;5001564;28;20293;-59
2021/07/12 09:58:07;;;;;;;3.87;3.47;;;;;;;22.42;100.00;97075.41;5000857;28;20728;-59
2021/07/12 10:00:34;;;;;;;3.83;3.53;;;;;;;22.42;100.00;97071.97;5006007;28;20209;-61
2021/07/12 10:03:01;;;;;;;3.93;3.23;;;;;;;22.27;100.00;97051.22;5004627;28;20750;-60
2021/07/12 10:05:28;;;;;;;3.93;3.63;;;;;;;22.36;100.00;97056.50;4995164;28;20235;-59
2021/07/12 10:07:55;;;;;;;3.37;3.07;;;;;;;22.41;100.00;97060.88;4979052;28;20252;-60
2021/07/12 10:10:21;;;;;;;4.23;3.30;;;;;;;22.42;100.00;97059.19;4985868;28;20235;-60
2021/07/12 10:12:48;;;;;;;4.10;3.60;;;;;;;22.42;100.00;97059.19;4995850;28;20226;-59
2021/07/12 10:15:16;;;;;;;5.23;3.37;;;;;;;22.42;100.00;97061.75;4987309;28;20673;-59
2021/07/12 10:17:43;;;;;;;3.67;3.37;;;;;;;22.42;100.00;97067.72;5004800;28;20233;-61
2021/07/12 10:20:11;;;;;;;4.50;3.70;;;;;;;22.42;100.00;97071.97;5004710;28;20203;-60
2021/07/12 10:22:39;;;;;;;3.60;3.30;;;;;;;22.37;100.00;97061.66;5005390;28;20198;-60
2021/07/12 10:25:10;;;;;;;5.30;3.10;;;;;;;22.43;100.00;97066.00;4983808;28;20195;-60
2021/07/12 10:27:51;;;;;;;3.97;3.67;;;;;;;22.43;100.00;97054.09;5002976;28;20258;-61
2021/07/12 10:30:31;;;;;;;3.80;3.40;;;;;;;22.44;100.00;97045.56;5006114;28;20229;-61
2021/07/12 10:33:08;;;;;;;3.70;3.33;;;;;;;22.46;100.00;97038.78;5006132;28;20293;-60
2021/07/12 10:35:52;;;;;;;3.00;2.80;;;;;;;22.47;100.00;97039.66;5011296;28;20631;-61
2021/07/12 10:38:26;;;;;;;3.80;3.33;;;;;;;22.48;100.00;97034.56;5011044;28;20766;-60
2021/07/12 10:40:56;;;;;;;3.57;3.27;;;;;;;22.49;100.00;97040.53;5013759;28;20202;-60
2021/07/12 10:44:07;;;;;;;3.90;3.60;;;;;;;22.50;100.00;97039.72;5013522;28;20234;-60
2021/07/12 10:46:36;;;;;;;3.33;3.03;;;;;;;22.51;100.00;97033.78;5018895;28;20674;-61
2021/07/12 10:49:04;;;;;;;3.97;3.63;;;;;;;22.47;100.00;97030.25;5021535;28;20218;-60
2021/07/12 10:51:35;;;;;;;3.30;3.00;;;;;;;22.52;100.00;97032.94;4976196;28;20319;-60
2021/07/12 10:54:10;;;;;;;3.27;2.90;;;;;;;22.53;100.00;97025.28;5000746;28;20203;-60
2021/07/12 10:56:54;;;;;;;3.10;2.90;;;;;;;22.54;100.00;97023.59;5006109;28;20252;-59
2021/07/12 10:59:27;;;;;;;4.10;3.80;;;;;;;22.55;100.00;97027.84;4986285;28;20246;-59
2021/07/12 11:01:54;;;;;;;3.40;3.10;;;;;;;22.48;100.00;97011.50;5004379;28;20237;-60
2021/07/12 11:04:32;;;;;;;3.13;2.93;;;;;;;22.52;100.00;97022.69;4991945;28;20206;-60
2021/07/12 11:06:59;;;;;;;4.37;3.13;;;;;;;22.52;100.00;97038.91;5002317;28;20229;-60
2021/07/12 11:09:48;;;;;;;3.43;3.13;;;;;;;22.58;100.00;97041.59;4985766;28;20257;-61
2021/07/12 11:12:31;;;;;;;3.20;3.00;;;;;;;22.59;100.00;97034.78;5004774;28;20232;-61
2021/07/12 11:15:15;;;;;;;3.10;2.90;;;;;;;22.59;100.00;97022.81;4998481;28;20203;-59
2021/07/12 11:18:04;;;;;;;3.37;3.10;;;;;;;22.60;100.00;97027.13;5021969;28;20260;-61
2021/07/12 11:20:54;;;;;;;3.37;3.07;;;;;;;22.59;100.00;97025.38;5019292;28;20210;-60
2021/07/12 11:24:05;;;;;;;3.20;3.00;;;;;;;22.62;100.00;97019.47;5011499;28;20245;-61
2021/07/12 11:26:32;;;;;;;3.33;3.03;;;;;;;22.62;100.00;97014.34;4977013;28;20205;-61
2021/07/12 11:29:30;;;;;;;3.13;2.93;;;;;;;22.58;100.00;97005.72;4995667;28;20261;-60
2021/07/12 11:32:05;;;;;;;3.27;2.97;;;;;;;22.63;100.00;97009.25;5001219;28;20289;-60
2021/07/12 11:34:36;;;;;;;3.10;2.90;;;;;;;22.64;100.00;97013.53;5018316;28;20743;-60
2021/07/12 11:37:06;;;;;;;3.00;2.80;;;;;;;22.64;100.00;97002.41;5010372;28;20282;-60
2021/07/12 11:39:42;;;;;;;4.13;3.03;;;;;;;22.54;100.00;96993.72;5019962;28;20353;-62